sensor_id;sensor_type;location;lat;lon;timestamp;pressure;altitude;pressure_sealevel;temperature;humidity
40998;BME280;26740;45.944;12.480;2024-03-02T00:00:09;100412.03;;;9.65;100.00
40998;BME280;26740;45.944;12.480;2024-03-02T00:02:43;100414.00;;;9.64;100.00
40998;BME280;26740;45.944;12.480;2024-03-02T00:05:13;100417.00;;;9.63;100.00
40998;BME280;26740;45.944;12.480;2024-03-02T00:07:45;100412.38;;;9.68;100.00
40998;BME280;26740;45.944;12.480;2024-03-02T00:10:16;100414.00;;;9.64;100.00
40998;BME280;26740;45.944;12.480;2024-03-02T00:12:47;100414.50;;;9.61;100.00
40998;BME280;26740;45.944;12.480;2024-03-02T00:18:13;100409.09;;;9.72;100.00
40998;BME280;26740;45.944;12.480;2024-03-02T00:20:40;100411.78;;;9.66;100.00
40998;BME280;26740;45.944;12.480;2024-03-02T00:23:08;100407.69;;;9.69;100.00
40998;BME280;26740;45.944;12.480;2024-03-02T00:25:46;100412.81;;;9.82;100.00
40998;BME280;26740;45.944;12.480;2024-03-02T00:28:23;100416.16;;;9.84;100.00
40998;BME280;26740;45.944;12.480;2024-03-02T00:31:09;100408.50;;;9.92;100.00
40998;BME280;26740;45.944;12.480;2024-03-02T00:33:47;100406.84;;;9.91;100.00
40998;BME280;26740;45.944;12.480;2024-03-02T00:36:24;100412.56;;;9.84;100.00
40998;BME280;26740;45.944;12.480;2024-03-02T00:38:53;100403.03;;;9.75;100.00
40998;BME280;26740;45.944;12.480;2024-03-02T00:41:40;100398.75;;;9.67;100.00
40998;BME280;26740;45.944;12.480;2024-03-02T00:44:09;100403.09;;;9.58;100.00
40998;BME280;26740;45.944;12.480;2024-03-02T00:49:05;100406.94;;;9.35;100.00
40998;BME280;26740;45.944;12.480;2024-03-02T00:51:32;100405.13;;;9.23;100.00
40998;BME280;26740;45.944;12.480;2024-03-02T00:53:59;100410.56;;;9.18;100.00
40998;BME280;26740;45.944;12.480;2024-03-02T00:56:25;100410.06;;;9.21;100.00
40998;BME280;26740;45.944;12.480;2024-03-02T00:58:51;100405.69;;;9.25;100.00
40998;BME280;26740;45.944;12.480;2024-03-02T01:01:17;100399.31;;;9.25;100.00
40998;BME280;26740;45.944;12.480;2024-03-02T01:03:45;100399.41;;;9.30;100.00
40998;BME280;26740;45.944;12.480;2024-03-02T01:06:11;100402.41;;;9.28;100.00
40998;BME280;26740;45.944;12.480;2024-03-02T01:08:37;100407.25;;;9.38;100.00
40998;BME280;26740;45.944;12.480;2024-03-02T01:11:03;100403.53;;;9.49;100.00
40998;BME280;26740;45.944;12.480;2024-03-02T01:13:29;100396.97;;;9.56;100.00
40998;BME280;26740;45.944;12.480;2024-03-02T01:15:55;100400.69;;;9.66;100.00
40998;BME280;26740;45.944;12.480;2024-03-02T01:18:21;100401.81;;;9.65;100.00
40998;BME280;26740;45.944;12.480;2024-03-02T01:20:47;100410.78;;;9.73;100.00
40998;BME280;26740;45.944;12.480;2024-03-02T01:23:13;100404.97;;;9.74;100.00
40998;BME280;26740;45.944;12.480;2024-03-02T01:25:39;100403.59;;;9.77;100.00
40998;BME280;26740;45.944;12.480;2024-03-02T01:28:05;100406.13;;;9.78;100.00
40998;BME280;26740;45.944;12.480;2024-03-02T01:30:31;100410.31;;;9.81;100.00
40998;BME280;26740;45.944;12.480;2024-03-02T01:32:56;100401.16;;;9.80;100.00
40998;BME280;26740;45.944;12.480;2024-03-02T01:35:24;100409.34;;;9.92;100.00
40998;BME280;26740;45.944;12.480;2024-03-02T01:37:50;100411.25;;;9.92;100.00
40998;BME280;26740;45.944;12.480;2024-03-02T01:40:15;100408.72;;;9.85;100.00
40998;BME280;26740;45.944;12.480;2024-03-02T01:42:43;100412.56;;;9.84;100.00
40998;BME280;26740;45.944;12.480;2024-03-02T01:45:09;100403.16;;;9.85;100.00
40998;BME280;26740;45.944;12.480;2024-03-02T01:47:35;100407.34;;;9.87;100.00
40998;BME280;26740;45.944;12.480;2024-03-02T01:50:00;100408.50;;;9.92;100.00
40998;BME280;26740;45.944;12.480;2024-03-02T01:52:27;100404.38;;;9.94;100.00
40998;BME280;26740;45.944;12.480;2024-03-02T01:54:52;100402.44;;;9.95;100.00
40998;BME280;26740;45.944;12.480;2024-03-02T01:57:18;100408.03;;;10.00;100.00
40998;BME280;26740;45.944;12.480;2024-03-02T01:59:45;100411.66;;;10.00;100.00
40998;BME280;26740;45.944;12.480;2024-03-02T02:02:13;100406.09;;;10.00;100.00
40998;BME280;26740;45.944;12.480;2024-03-02T02:04:39;100403.31;;;10.00;100.00
40998;BME280;26740;45.944;12.480;2024-03-02T02:07:05;100400.84;;;9.99;100.00
40998;BME280;26740;45.944;12.480;2024-03-02T02:09:32;100400.28;;;10.02;100.00
40998;BME280;26740;45.944;12.480;2024-03-02T02:11:58;100403.59;;;9.99;100.00
40998;BME280;26740;45.944;12.480;2024-03-02T02:14:24;100407.03;;;10.06;100.00
40998;BME280;26740;45.944;12.480;2024-03-02T02:16:50;100418.63;;;10.30;100.00
40998;BME280;26740;45.944;12.480;2024-03-02T02:19:15;100417.63;;;10.36;100.00
40998;BME280;26740;45.944;12.480;2024-03-02T02:21:44;100415.53;;;10.27;100.00
40998;BME280;26740;45.944;12.480;2024-03-02T02:24:10;100417.94;;;9.91;100.00
40998;BME280;26740;45.944;12.480;2024-03-02T02:26:35;100429.22;;;10.06;100.00
40998;BME280;26740;45.944;12.480;2024-03-02T02:29:01;100422.31;;;9.86;100.00
40998;BME280;26740;45.944;12.480;2024-03-02T02:31:26;100412.97;;;9.71;100.00
40998;BME280;26740;45.944;12.480;2024-03-02T02:33:52;100421.66;;;9.79;100.00
40998;BME280;26740;45.944;12.480;2024-03-02T02:36:18;100426.81;;;9.93;100.00
40998;BME280;26740;45.944;12.480;2024-03-02T02:38:46;100423.91;;;9.82;100.00
40998;BME280;26740;45.944;12.480;2024-03-02T02:41:13;100422.94;;;9.49;100.00
40998;BME280;26740;45.944;12.480;2024-03-02T02:43:38;100414.56;;;9.44;100.00
40998;BME280;26740;45.944;12.480;2024-03-02T02:46:05;100416.69;;;9.37;100.00
40998;BME280;26740;45.944;12.480;2024-03-02T02:48:31;100414.09;;;9.30;100.00
40998;BME280;26740;45.944;12.480;2024-03-02T02:50:57;100409.03;;;9.27;100.00
40998;BME280;26740;45.944;12.480;2024-03-02T02:53:22;100410.34;;;9.42;100.00
40998;BME280;26740;45.944;12.480;2024-03-02T02:55:48;100407.25;;;9.38;100.00
40998;BME280;26740;45.944;12.480;2024-03-02T02:58:13;100403.66;;;9.38;100.00
40998;BME280;26740;45.944;12.480;2024-03-02T03:00:40;100398.50;;;9.46;100.00
40998;BME280;26740;45.944;12.480;2024-03-02T03:03:05;100410.16;;;9.48;100.00
40998;BME280;26740;45.944;12.480;2024-03-02T03:05:31;100405.22;;;9.51;100.00
40998;BME280;26740;45.944;12.480;2024-03-02T03:07:57;100415.84;;;9.59;100.00
40998;BME280;26740;45.944;12.480;2024-03-02T03:10:22;100411.00;;;9.49;100.00
40998;BME280;26740;45.944;12.480;2024-03-02T03:12:51;100410.50;;;9.52;100.00
40998;BME280;26740;45.944;12.480;2024-03-02T03:15:17;100409.34;;;9.48;100.00
40998;BME280;26740;45.944;12.480;2024-03-02T03:17:42;100407.22;;;9.55;100.00
40998;BME280;26740;45.944;12.480;2024-03-02T03:20:08;100410.56;;;9.57;100.00
40998;BME280;26740;45.944;12.480;2024-03-02T03:22:38;100403.66;;;9.60;100.00
40998;BME280;26740;45.944;12.480;2024-03-02T03:25:04;100416.03;;;9.52;100.00
40998;BME280;26740;45.944;12.480;2024-03-02T03:27:30;100413.34;;;9.57;100.00
40998;BME280;26740;45.944;12.480;2024-03-02T03:29:55;100414.88;;;9.48;100.00
40998;BME280;26740;45.944;12.480;2024-03-02T03:32:22;100422.41;;;9.53;100.00
40998;BME280;26740;45.944;12.480;2024-03-02T03:34:47;100421.59;;;9.52;100.00
40998;BME280;26740;45.944;12.480;2024-03-02T03:37:14;100423.84;;;9.55;100.00
40998;BME280;26740;45.944;12.480;2024-03-02T03:39:39;100423.59;;;9.57;100.00
40998;BME280;26740;45.944;12.480;2024-03-02T03:42:05;100430.88;;;9.63;100.00
40998;BME280;26740;45.944;12.480;2024-03-02T03:44:31;100431.44;;;9.65;100.00
40998;BME280;26740;45.944;12.480;2024-03-02T03:46:57;100420.09;;;9.66;100.00
40998;BME280;26740;45.944;12.480;2024-03-02T03:49:23;100413.47;;;9.67;100.00
40998;BME280;26740;45.944;12.480;2024-03-02T03:51:48;100417.91;;;9.68;100.00
40998;BME280;26740;45.944;12.480;2024-03-02T03:54:14;100427.28;;;9.62;100.00
40998;BME280;26740;45.944;12.480;2024-03-02T03:56:40;100424.97;;;9.76;100.00
40998;BME280;26740;45.944;12.480;2024-03-02T03:59:06;100425.03;;;9.81;100.00
40998;BME280;26740;45.944;12.480;2024-03-02T04:01:31;100426.03;;;9.75;100.00
40998;BME280;26740;45.944;12.480;2024-03-02T04:03:57;100421.94;;;9.78;100.00
40998;BME280;26740;45.944;12.480;2024-03-02T04:06:23;100425.41;;;9.68;100.00
40998;BME280;26740;45.944;12.480;2024-03-02T04:08:49;100421.00;;;9.72;100.00
40998;BME280;26740;45.944;12.480;2024-03-02T04:11:14;100421.31;;;9.76;100.00
40998;BME280;26740;45.944;12.480;2024-03-02T04:13:40;100424.31;;;9.69;100.00
40998;BME280;26740;45.944;12.480;2024-03-02T04:16:06;100427.09;;;9.69;100.00
40998;BME280;26740;45.944;12.480;2024-03-02T04:18:31;100432.63;;;9.69;100.00
40998;BME280;26740;45.944;12.480;2024-03-02T04:20:58;100433.13;;;9.66;100.00
40998;BME280;26740;45.944;12.480;2024-03-02T04:23:25;100427.00;;;9.64;100.00
40998;BME280;26740;45.944;12.480;2024-03-02T04:25:51;100428.06;;;9.80;100.00
40998;BME280;26740;45.944;12.480;2024-03-02T04:28:16;100429.94;;;9.74;100.00
40998;BME280;26740;45.944;12.480;2024-03-02T04:30:42;100433.22;;;9.71;100.00
40998;BME280;26740;45.944;12.480;2024-03-02T04:33:07;100432.09;;;9.72;100.00
40998;BME280;26740;45.944;12.480;2024-03-02T04:35:36;100437.00;;;9.65;100.00
40998;BME280;26740;45.944;12.480;2024-03-02T04:38:01;100439.59;;;9.94;100.00
40998;BME280;26740;45.944;12.480;2024-03-02T04:40:27;100432.50;;;9.81;100.00
40998;BME280;26740;45.944;12.480;2024-03-02T04:42:52;100441.59;;;9.76;100.00
40998;BME280;26740;45.944;12.480;2024-03-02T04:45:18;100436.31;;;9.75;100.00
40998;BME280;26740;45.944;12.480;2024-03-02T04:47:44;100442.75;;;9.80;100.00
40998;BME280;26740;45.944;12.480;2024-03-02T04:50:09;100441.66;;;9.81;100.00
40998;BME280;26740;45.944;12.480;2024-03-02T04:52:36;100452.03;;;9.91;100.00
40998;BME280;26740;45.944;12.480;2024-03-02T04:55:01;100446.34;;;9.81;100.00
40998;BME280;26740;45.944;12.480;2024-03-02T04:57:42;100450.06;;;9.86;100.00
40998;BME280;26740;45.944;12.480;2024-03-02T05:00:09;100452.88;;;9.92;100.00
40998;BME280;26740;45.944;12.480;2024-03-02T05:02:35;100457.91;;;9.95;100.00
40998;BME280;26740;45.944;12.480;2024-03-02T05:05:01;100451.78;;;9.93;100.00
40998;BME280;26740;45.944;12.480;2024-03-02T05:07:27;100460.75;;;10.00;100.00
40998;BME280;26740;45.944;12.480;2024-03-02T05:09:53;100458.88;;;10.05;100.00
40998;BME280;26740;45.944;12.480;2024-03-02T05:12:19;100463.97;;;10.14;100.00
40998;BME280;26740;45.944;12.480;2024-03-02T05:15:03;100467.81;;;10.13;100.00
40998;BME280;26740;45.944;12.480;2024-03-02T05:17:29;100470.34;;;10.14;100.00
40998;BME280;26740;45.944;12.480;2024-03-02T05:19:55;100474.34;;;10.23;100.00
40998;BME280;26740;45.944;12.480;2024-03-02T05:22:21;100482.56;;;10.13;100.00
40998;BME280;26740;45.944;12.480;2024-03-02T05:24:46;100483.13;;;10.15;100.00
40998;BME280;26740;45.944;12.480;2024-03-02T05:27:12;100477.09;;;10.23;100.00
40998;BME280;26740;45.944;12.480;2024-03-02T05:29:37;100484.78;;;10.16;100.00
40998;BME280;26740;45.944;12.480;2024-03-02T05:32:03;100482.63;;;10.18;100.00
40998;BME280;26740;45.944;12.480;2024-03-02T05:34:29;100486.16;;;10.14;100.00
40998;BME280;26740;45.944;12.480;2024-03-02T05:36:56;100489.94;;;10.07;100.00
40998;BME280;26740;45.944;12.480;2024-03-02T05:39:23;100496.03;;;10.04;100.00
40998;BME280;26740;45.944;12.480;2024-03-02T05:41:48;100490.25;;;10.06;100.00
40998;BME280;26740;45.944;12.480;2024-03-02T05:44:14;100484.03;;;9.99;100.00
40998;BME280;26740;45.944;12.480;2024-03-02T05:46:41;100488.47;;;10.00;100.00
40998;BME280;26740;45.944;12.480;2024-03-02T05:49:07;100500.88;;;9.92;100.00
40998;BME280;26740;45.944;12.480;2024-03-02T05:51:33;100497.38;;;9.80;100.00
40998;BME280;26740;45.944;12.480;2024-03-02T05:53:59;100498.84;;;9.87;100.00
40998;BME280;26740;45.944;12.480;2024-03-02T05:56:24;100498.09;;;9.92;100.00
40998;BME280;26740;45.944;12.480;2024-03-02T05:58:50;100494.13;;;9.88;100.00
40998;BME280;26740;45.944;12.480;2024-03-02T06:01:34;100495.84;;;9.89;100.00
40998;BME280;26740;45.944;12.480;2024-03-02T06:03:59;100496.81;;;10.00;100.00
40998;BME280;26740;45.944;12.480;2024-03-02T06:06:25;100494.28;;;9.98;100.00
40998;BME280;26740;45.944;12.480;2024-03-02T06:08:51;100509.00;;;9.99;100.00
40998;BME280;26740;45.944;12.480;2024-03-02T06:11:17;100510.41;;;10.01;100.00
40998;BME280;26740;45.944;12.480;2024-03-02T06:13:44;100505.13;;;10.00;100.00
40998;BME280;26740;45.944;12.480;2024-03-02T06:16:10;100511.50;;;10.00;100.00
40998;BME280;26740;45.944;12.480;2024-03-02T06:18:36;100509.25;;;9.97;100.00
40998;BME280;26740;45.944;12.480;2024-03-02T06:21:01;100503.47;;;9.99;100.00
40998;BME280;26740;45.944;12.480;2024-03-02T06:23:27;100514.19;;;9.95;100.00
40998;BME280;26740;45.944;12.480;2024-03-02T06:25:53;100514.03;;;10.02;100.00
40998;BME280;26740;45.944;12.480;2024-03-02T06:28:18;100506.34;;;10.09;100.00
40998;BME280;26740;45.944;12.480;2024-03-02T06:30:44;100508.88;;;10.11;100.00
40998;BME280;26740;45.944;12.480;2024-03-02T06:33:10;100506.41;;;10.14;100.00
40998;BME280;26740;45.944;12.480;2024-03-02T06:35:36;100505.72;;;10.24;100.00
40998;BME280;26740;45.944;12.480;2024-03-02T06:38:02;100507.91;;;10.22;100.00
40998;BME280;26740;45.944;12.480;2024-03-02T06:40:28;100518.81;;;10.06;100.00
40998;BME280;26740;45.944;12.480;2024-03-02T06:42:53;100526.41;;;9.94;100.00
40998;BME280;26740;45.944;12.480;2024-03-02T06:45:19;100528.34;;;9.94;100.00
40998;BME280;26740;45.944;12.480;2024-03-02T06:47:44;100524.75;;;10.15;100.00
40998;BME280;26740;45.944;12.480;2024-03-02T06:50:11;100524.19;;;10.35;100.00
40998;BME280;26740;45.944;12.480;2024-03-02T06:52:36;100520.59;;;10.35;100.00
40998;BME280;26740;45.944;12.480;2024-03-02T06:55:02;100534.66;;;10.50;100.00
40998;BME280;26740;45.944;12.480;2024-03-02T06:57:29;100535.59;;;10.61;100.00
40998;BME280;26740;45.944;12.480;2024-03-02T06:59:55;100536.84;;;10.75;100.00
40998;BME280;26740;45.944;12.480;2024-03-02T07:02:24;100534.44;;;10.84;100.00
40998;BME280;26740;45.944;12.480;2024-03-02T07:04:50;100531.91;;;11.10;100.00
40998;BME280;26740;45.944;12.480;2024-03-02T07:07:16;100536.16;;;11.17;100.00
40998;BME280;26740;45.944;12.480;2024-03-02T07:09:42;100540.66;;;11.24;100.00
40998;BME280;26740;45.944;12.480;2024-03-02T07:12:07;100537.75;;;11.41;100.00
40998;BME280;26740;45.944;12.480;2024-03-02T07:14:33;100541.00;;;11.32;100.00
40998;BME280;26740;45.944;12.480;2024-03-02T07:17:17;100543.69;;;11.22;100.00
40998;BME280;26740;45.944;12.480;2024-03-02T07:19:43;100552.34;;;11.58;100.00
40998;BME280;26740;45.944;12.480;2024-03-02T07:22:08;100561.63;;;11.74;100.00
40998;BME280;26740;45.944;12.480;2024-03-02T07:24:41;100568.03;;;11.74;100.00
40998;BME280;26740;45.944;12.480;2024-03-02T07:27:11;100569.75;;;11.86;100.00
40998;BME280;26740;45.944;12.480;2024-03-02T07:29:38;100567.69;;;11.66;100.00
40998;BME280;26740;45.944;12.480;2024-03-02T07:32:04;100570.13;;;11.57;100.00
40998;BME280;26740;45.944;12.480;2024-03-02T07:34:30;100565.06;;;11.86;100.00
40998;BME280;26740;45.944;12.480;2024-03-02T07:36:56;100569.75;;;11.86;100.00
40998;BME280;26740;45.944;12.480;2024-03-02T07:39:22;100571.84;;;12.01;100.00
40998;BME280;26740;45.944;12.480;2024-03-02T07:41:48;100570.97;;;12.48;100.00
40998;BME280;26740;45.944;12.480;2024-03-02T07:44:14;100572.00;;;13.15;100.00
40998;BME280;26740;45.944;12.480;2024-03-02T07:46:41;100565.09;;;13.49;100.00
40998;BME280;26740;45.944;12.480;2024-03-02T07:49:07;100577.63;;;13.72;100.00
40998;BME280;26740;45.944;12.480;2024-03-02T07:51:33;100587.94;;;13.45;100.00
40998;BME280;26740;45.944;12.480;2024-03-02T07:53:58;100583.16;;;13.15;100.00
40998;BME280;26740;45.944;12.480;2024-03-02T07:56:24;100596.22;;;12.99;100.00
40998;BME280;26740;45.944;12.480;2024-03-02T07:58:50;100592.00;;;12.92;100.00
40998;BME280;26740;45.944;12.480;2024-03-02T08:01:16;100590.72;;;12.41;100.00
40998;BME280;26740;45.944;12.480;2024-03-02T08:03:43;100590.03;;;12.19;100.00
40998;BME280;26740;45.944;12.480;2024-03-02T08:06:14;100584.72;;;12.17;100.00
40998;BME280;26740;45.944;12.480;2024-03-02T08:08:40;100589.91;;;11.98;100.00
40998;BME280;26740;45.944;12.480;2024-03-02T08:11:06;100588.81;;;11.99;100.00
40998;BME280;26740;45.944;12.480;2024-03-02T08:13:32;100595.47;;;11.93;100.00
40998;BME280;26740;45.944;12.480;2024-03-02T08:15:57;100590.88;;;11.82;100.00
40998;BME280;26740;45.944;12.480;2024-03-02T08:18:24;100598.06;;;11.72;100.00
40998;BME280;26740;45.944;12.480;2024-03-02T08:20:49;100591.91;;;11.70;100.00
40998;BME280;26740;45.944;12.480;2024-03-02T08:23:15;100600.19;;;11.60;100.00
40998;BME280;26740;45.944;12.480;2024-03-02T08:25:41;100600.97;;;11.55;100.00
40998;BME280;26740;45.944;12.480;2024-03-02T08:28:07;100600.44;;;11.58;100.00
40998;BME280;26740;45.944;12.480;2024-03-02T08:30:33;100602.97;;;11.60;100.00
40998;BME280;26740;45.944;12.480;2024-03-02T08:32:58;100603.53;;;11.62;100.00
40998;BME280;26740;45.944;12.480;2024-03-02T08:35:24;100601.41;;;11.74;100.00
40998;BME280;26740;45.944;12.480;2024-03-02T08:37:49;100602.88;;;11.87;100.00
40998;BME280;26740;45.944;12.480;2024-03-02T08:40:15;100603.84;;;12.03;100.00
40998;BME280;26740;45.944;12.480;2024-03-02T08:42:41;100607.78;;;12.07;100.00
40998;BME280;26740;45.944;12.480;2024-03-02T08:45:07;100607.13;;;12.38;100.00
40998;BME280;26740;45.944;12.480;2024-03-02T08:47:33;100610.91;;;12.74;100.00
40998;BME280;26740;45.944;12.480;2024-03-02T08:49:59;100613.28;;;13.18;100.00
40998;BME280;26740;45.944;12.480;2024-03-02T08:52:26;100615.56;;;13.57;100.00
40998;BME280;26740;45.944;12.480;2024-03-02T08:54:51;100613.88;;;13.41;100.00
40998;BME280;26740;45.944;12.480;2024-03-02T08:57:17;100620.75;;;12.97;100.00
40998;BME280;26740;45.944;12.480;2024-03-02T08:59:43;100625.31;;;12.56;100.00
40998;BME280;26740;45.944;12.480;2024-03-02T09:02:09;100626.97;;;12.51;100.00
40998;BME280;26740;45.944;12.480;2024-03-02T09:04:35;100622.41;;;12.35;100.00
40998;BME280;26740;45.944;12.480;2024-03-02T09:07:01;100623.78;;;12.27;100.00
40998;BME280;26740;45.944;12.480;2024-03-02T09:09:26;100626.38;;;12.44;100.00
40998;BME280;26740;45.944;12.480;2024-03-02T09:11:52;100634.91;;;12.85;100.00
40998;BME280;26740;45.944;12.480;2024-03-02T09:14:20;100628.81;;;12.94;100.00
40998;BME280;26740;45.944;12.480;2024-03-02T09:16:46;100633.84;;;13.02;100.00
40998;BME280;26740;45.944;12.480;2024-03-02T09:19:12;100634.03;;;12.75;100.00
40998;BME280;26740;45.944;12.480;2024-03-02T09:21:37;100634.09;;;12.90;100.00
40998;BME280;26740;45.944;12.480;2024-03-02T09:24:03;100631.53;;;12.78;100.00
40998;BME280;26740;45.944;12.480;2024-03-02T09:26:29;100635.41;;;12.77;100.00
40998;BME280;26740;45.944;12.480;2024-03-02T09:28:55;100637.56;;;12.60;100.00
40998;BME280;26740;45.944;12.480;2024-03-02T09:31:20;100632.16;;;12.32;100.00
40998;BME280;26740;45.944;12.480;2024-03-02T09:33:46;100636.94;;;12.37;100.00
40998;BME280;26740;45.944;12.480;2024-03-02T09:36:22;100632.97;;;12.33;100.00
40998;BME280;26740;45.944;12.480;2024-03-02T09:38:48;100635.13;;;12.74;100.00
40998;BME280;26740;45.944;12.480;2024-03-02T09:41:17;100637.69;;;12.85;100.00
40998;BME280;26740;45.944;12.480;2024-03-02T09:43:42;100637.66;;;12.75;100.00
40998;BME280;26740;45.944;12.480;2024-03-02T09:46:09;100633.84;;;13.02;100.00
40998;BME280;26740;45.944;12.480;2024-03-02T09:48:35;100634.72;;;13.23;100.00
40998;BME280;26740;45.944;12.480;2024-03-02T09:51:01;100642.34;;;13.38;100.00
40998;BME280;26740;45.944;12.480;2024-03-02T09:53:31;100640.25;;;13.07;100.00
40998;BME280;26740;45.944;12.480;2024-03-02T09:55:58;100643.50;;;12.74;100.00
40998;BME280;26740;45.944;12.480;2024-03-02T09:58:23;100629.63;;;12.89;100.00
40998;BME280;26740;45.944;12.480;2024-03-02T10:00:49;100639.38;;;12.92;100.00
40998;BME280;26740;45.944;12.480;2024-03-02T10:03:15;100636.00;;;12.84;100.00
40998;BME280;26740;45.944;12.480;2024-03-02T10:05:42;100634.69;;;12.97;100.00
40998;BME280;26740;45.944;12.480;2024-03-02T10:08:07;100632.78;;;13.23;100.00
40998;BME280;26740;45.944;12.480;2024-03-02T10:10:40;100642.88;;;13.40;100.00
40998;BME280;26740;45.944;12.480;2024-03-02T10:13:08;100632.84;;;13.80;100.00
40998;BME280;26740;45.944;12.480;2024-03-02T10:15:35;100633.13;;;13.99;100.00
40998;BME280;26740;45.944;12.480;2024-03-02T10:18:00;100642.03;;;14.16;100.00
40998;BME280;26740;45.944;12.480;2024-03-02T10:20:26;100631.69;;;14.27;100.00
40998;BME280;26740;45.944;12.480;2024-03-02T10:22:56;100630.88;;;14.01;100.00
40998;BME280;26740;45.944;12.480;2024-03-02T10:25:34;100633.16;;;13.68;100.00
40998;BME280;26740;45.944;12.480;2024-03-02T10:28:00;100629.78;;;13.92;100.00
40998;BME280;26740;45.944;12.480;2024-03-02T10:30:29;100638.19;;;13.66;100.00
40998;BME280;26740;45.944;12.480;2024-03-02T10:32:55;100640.84;;;13.09;100.00
40998;BME280;26740;45.944;12.480;2024-03-02T10:35:23;100640.13;;;12.66;100.00
40998;BME280;26740;45.944;12.480;2024-03-02T10:37:51;100637.88;;;12.63;100.00
40998;BME280;26740;45.944;12.480;2024-03-02T10:40:18;100630.50;;;12.37;100.00
40998;BME280;26740;45.944;12.480;2024-03-02T10:42:45;100632.94;;;12.28;100.00
40998;BME280;26740;45.944;12.480;2024-03-02T10:45:12;100628.94;;;12.08;100.00
40998;BME280;26740;45.944;12.480;2024-03-02T10:47:38;100635.53;;;11.97;100.00
40998;BME280;26740;45.944;12.480;2024-03-02T10:50:07;100633.44;;;12.14;100.00
40998;BME280;26740;45.944;12.480;2024-03-02T10:52:39;100633.16;;;12.11;100.00
40998;BME280;26740;45.944;12.480;2024-03-02T10:55:09;100631.94;;;12.02;100.00
40998;BME280;26740;45.944;12.480;2024-03-02T10:57:42;100630.34;;;12.11;100.00
40998;BME280;26740;45.944;12.480;2024-03-02T11:00:14;100631.72;;;12.08;100.00
40998;BME280;26740;45.944;12.480;2024-03-02T11:02:50;100635.63;;;12.07;100.00
40998;BME280;26740;45.944;12.480;2024-03-02T11:06:07;100630.13;;;12.23;100.00
40998;BME280;26740;45.944;12.480;2024-03-02T11:08:12;100626.09;;;12.41;100.00
40998;BME280;26740;45.944;12.480;2024-03-02T11:10:51;100625.25;;;12.45;100.00
40998;BME280;26740;45.944;12.480;2024-03-02T11:13:22;100619.94;;;12.44;100.00
40998;BME280;26740;45.944;12.480;2024-03-02T11:15:52;100626.91;;;12.41;100.00
40998;BME280;26740;45.944;12.480;2024-03-02T11:18:19;100622.75;;;12.49;100.00
40998;BME280;26740;45.944;12.480;2024-03-02T11:20:45;100621.91;;;12.43;100.00
40998;BME280;26740;45.944;12.480;2024-03-02T11:23:11;100622.72;;;12.39;100.00
40998;BME280;26740;45.944;12.480;2024-03-02T11:25:37;100629.69;;;12.41;100.00
40998;BME280;26740;45.944;12.480;2024-03-02T11:28:07;100613.72;;;12.21;100.00
40998;BME280;26740;45.944;12.480;2024-03-02T11:33:06;100613.94;;;12.09;100.00
40998;BME280;26740;45.944;12.480;2024-03-02T11:35:45;100619.72;;;12.03;100.00
40998;BME280;26740;45.944;12.480;2024-03-02T11:38:14;100605.03;;;12.12;100.00
40998;BME280;26740;45.944;12.480;2024-03-02T11:40:40;100614.00;;;12.20;100.00
40998;BME280;26740;45.944;12.480;2024-03-02T11:43:06;100610.88;;;12.11;100.00
40998;BME280;26740;45.944;12.480;2024-03-02T11:45:33;100615.03;;;12.08;100.00
40998;BME280;26740;45.944;12.480;2024-03-02T11:47:59;100606.13;;;12.11;100.00
40998;BME280;26740;45.944;12.480;2024-03-02T11:50:29;100609.78;;;12.17;100.00
40998;BME280;26740;45.944;12.480;2024-03-02T11:52:56;100606.63;;;12.03;100.00
40998;BME280;26740;45.944;12.480;2024-03-02T11:55:26;100605.34;;;11.84;100.00
40998;BME280;26740;45.944;12.480;2024-03-02T11:57:52;100601.94;;;11.71;100.00
40998;BME280;26740;45.944;12.480;2024-03-02T12:00:19;100601.09;;;11.71;100.00
40998;BME280;26740;45.944;12.480;2024-03-02T12:05:27;100599.78;;;11.84;100.00
40998;BME280;26740;45.944;12.480;2024-03-02T12:08:02;100597.72;;;12.01;100.00
40998;BME280;26740;45.944;12.480;2024-03-02T12:10:28;100586.66;;;12.11;100.00
40998;BME280;26740;45.944;12.480;2024-03-02T12:13:07;100586.25;;;12.45;100.00
40998;BME280;26740;45.944;12.480;2024-03-02T12:15:35;100588.50;;;12.48;100.00
40998;BME280;26740;45.944;12.480;2024-03-02T12:18:04;100590.66;;;12.31;100.00
40998;BME280;26740;45.944;12.480;2024-03-02T12:20:32;100584.84;;;12.38;100.00
40998;BME280;26740;45.944;12.480;2024-03-02T12:22:59;100584.78;;;12.27;100.00
40998;BME280;26740;45.944;12.480;2024-03-02T12:25:25;100588.81;;;12.52;100.00
40998;BME280;26740;45.944;12.480;2024-03-02T12:27:54;100571.66;;;12.86;100.00
40998;BME280;26740;45.944;12.480;2024-03-02T12:30:20;100574.72;;;12.95;100.00
40998;BME280;26740;45.944;12.480;2024-03-02T12:32:46;100569.13;;;12.79;100.00
40998;BME280;26740;45.944;12.480;2024-03-02T12:35:13;100570.25;;;12.78;100.00
40998;BME280;26740;45.944;12.480;2024-03-02T12:37:46;100572.47;;;12.76;100.00
40998;BME280;26740;45.944;12.480;2024-03-02T12:40:13;100571.69;;;12.96;100.00
40998;BME280;26740;45.944;12.480;2024-03-02T12:42:40;100565.75;;;12.62;100.00